createdAt,value
2023-05-17T00:00:53.699Z,7.07
2023-05-17T00:03:22.216Z,7.02
2023-05-17T00:05:52.065Z,7.03
2023-05-17T00:08:20.588Z,7.03
2023-05-17T00:10:49.028Z,6.90
2023-05-17T00:13:17.498Z,6.76
2023-05-17T00:15:46.089Z,6.74
2023-05-17T00:18:14.725Z,6.83
2023-05-17T00:20:43.314Z,6.97
2023-05-17T00:23:13.210Z,6.99
2023-05-17T00:25:41.736Z,6.93
2023-05-17T00:28:10.122Z,6.92
2023-05-17T00:30:38.612Z,6.90
2023-05-17T00:33:07.043Z,6.97
2023-05-17T00:35:35.549Z,6.88
2023-05-17T00:38:04.437Z,6.85
2023-05-17T00:40:34.292Z,6.63
2023-05-17T00:43:02.752Z,6.56
2023-05-17T00:45:31.450Z,6.44
2023-05-17T00:48:00.101Z,6.32
2023-05-17T00:50:29.938Z,6.21
2023-05-17T00:52:58.587Z,6.09
2023-05-17T00:55:28.177Z,6.12
2023-05-17T00:57:58.697Z,6.26
2023-05-17T01:00:27.339Z,6.33
2023-05-17T01:02:55.888Z,6.34
2023-05-17T01:05:24.812Z,6.28
2023-05-17T01:07:53.283Z,6.06
2023-05-17T01:10:22.511Z,5.70
2023-05-17T01:13:07.233Z,6.12
2023-05-17T01:15:42.773Z,6.19
2023-05-17T01:18:19.660Z,6.20
2023-05-17T01:20:53.590Z,6.23
2023-05-17T01:23:36.824Z,6.19
2023-05-17T01:26:19.499Z,6.18
2023-05-17T01:28:54.735Z,6.13
2023-05-17T01:31:25.215Z,6.15
2023-05-17T01:33:53.735Z,6.12
2023-05-17T01:36:22.534Z,6.12
2023-05-17T01:38:50.975Z,6.13
2023-05-17T01:41:30.544Z,6.14
2023-05-17T01:44:11.786Z,6.31
2023-05-17T01:46:42.917Z,6.41
2023-05-17T01:49:22.942Z,6.49
2023-05-17T01:51:59.647Z,6.51
2023-05-17T01:54:38.214Z,6.47
2023-05-17T01:57:11.242Z,6.40
2023-05-17T01:59:43.240Z,6.32
2023-05-17T02:02:11.811Z,6.14
2023-05-17T02:04:40.332Z,6.19
2023-05-17T02:07:08.816Z,6.14
2023-05-17T02:09:37.748Z,6.04
2023-05-17T02:12:08.037Z,5.99
2023-05-17T02:14:36.497Z,5.93
2023-05-17T02:17:06.884Z,5.82
2023-05-17T02:19:35.462Z,5.71
2023-05-17T02:22:04.052Z,5.61
2023-05-17T02:24:32.530Z,5.50
2023-05-17T02:27:01.014Z,5.42
2023-05-17T02:29:29.471Z,5.37
2023-05-17T02:31:57.988Z,5.37
2023-05-17T02:34:27.918Z,5.26
2023-05-17T02:36:56.375Z,5.40
2023-05-17T02:39:24.870Z,5.20
2023-05-17T02:41:53.298Z,5.39
2023-05-17T02:44:21.755Z,5.28
2023-05-17T02:46:50.220Z,5.22
2023-05-17T02:49:18.691Z,5.14
2023-05-17T02:51:48.590Z,5.04
2023-05-17T02:54:17.326Z,4.89
2023-05-17T02:56:46.084Z,4.89
2023-05-17T02:59:16.248Z,4.57
2023-05-17T03:01:45.005Z,4.84
2023-05-17T03:04:13.877Z,4.74
2023-05-17T03:06:42.558Z,4.92
2023-05-17T03:09:12.385Z,4.93
2023-05-17T03:11:41.609Z,4.95
2023-05-17T03:14:18.066Z,5.00
2023-05-17T03:16:46.569Z,5.04
2023-05-17T03:19:15.705Z,5.09
2023-05-17T03:21:45.461Z,5.13
2023-05-17T03:24:17.327Z,5.19
2023-05-17T03:26:45.962Z,5.10
2023-05-17T03:29:15.003Z,5.24
2023-05-17T03:31:46.080Z,5.27
2023-05-17T03:34:15.691Z,5.34
2023-05-17T03:36:44.882Z,5.22
2023-05-17T03:39:13.424Z,5.56
2023-05-17T03:41:44.435Z,5.73
2023-05-17T03:44:12.877Z,5.89
2023-05-17T03:46:41.337Z,5.53
2023-05-17T03:49:10.944Z,6.25
2023-05-17T03:51:40.492Z,6.20
2023-05-17T03:54:09.073Z,6.60
2023-05-17T03:56:37.807Z,6.53
2023-05-17T03:59:07.660Z,6.91
2023-05-17T04:01:36.123Z,7.06
2023-05-17T04:04:06.059Z,7.15
2023-05-17T04:06:34.622Z,7.32
2023-05-17T04:09:04.700Z,7.28
2023-05-17T04:11:33.212Z,7.27
2023-05-17T04:14:01.694Z,7.43
2023-05-17T04:16:32.176Z,7.42
2023-05-17T04:19:02.320Z,7.39
2023-05-17T04:21:31.733Z,7.32
2023-05-17T04:24:00.178Z,7.22
2023-05-17T04:26:28.995Z,7.12
2023-05-17T04:28:57.397Z,7.06
2023-05-17T04:31:25.827Z,6.98
2023-05-17T04:33:55.824Z,6.93
2023-05-17T04:36:24.306Z,6.88
2023-05-17T04:38:53.230Z,6.82
2023-05-17T04:41:25.807Z,6.77
2023-05-17T04:43:54.400Z,6.75
2023-05-17T04:46:29.677Z,6.73
2023-05-17T04:49:00.221Z,6.76
2023-05-17T04:51:30.671Z,6.63
2023-05-17T04:54:01.015Z,6.91
2023-05-17T04:56:33.220Z,7.05
2023-05-17T04:59:02.708Z,7.24
2023-05-17T05:01:31.964Z,7.48
2023-05-17T05:04:21.714Z,7.82
2023-05-17T05:06:51.175Z,8.11
2023-05-17T05:09:22.421Z,8.46
2023-05-17T05:11:51.131Z,8.86
2023-05-17T05:14:19.589Z,9.24
2023-05-17T05:16:48.067Z,9.57
2023-05-17T05:19:17.734Z,9.76
2023-05-17T05:21:48.772Z,9.88
2023-05-17T05:24:17.440Z,9.97
2023-05-17T05:26:46.505Z,10.11
2023-05-17T05:29:16.514Z,10.21
2023-05-17T05:31:45.416Z,10.29
2023-05-17T05:34:15.153Z,10.39
2023-05-17T05:36:44.153Z,10.48
2023-05-17T05:39:14.065Z,10.63
2023-05-17T05:41:44.614Z,10.79
2023-05-17T05:44:13.095Z,10.96
2023-05-17T05:46:41.569Z,11.07
2023-05-17T05:49:10.636Z,11.26
2023-05-17T05:51:39.394Z,11.39
2023-05-17T05:54:08.427Z,11.37
2023-05-17T05:56:38.201Z,11.25
2023-05-17T05:59:08.281Z,11.48
2023-05-17T06:01:39.141Z,11.63
2023-05-17T06:04:07.586Z,11.79
2023-05-17T06:06:37.024Z,11.82
2023-05-17T06:09:07.066Z,11.93
2023-05-17T06:11:36.868Z,11.89
2023-05-17T06:14:06.833Z,11.77
2023-05-17T06:16:35.475Z,12.04
2023-05-17T06:19:04.815Z,11.97
2023-05-17T06:21:35.851Z,11.93
2023-05-17T06:24:05.277Z,12.02
2023-05-17T06:26:33.802Z,11.89
2023-05-17T06:29:03.974Z,12.07
2023-05-17T06:31:33.340Z,11.93
2023-05-17T06:34:01.825Z,11.94
2023-05-17T06:38:59.181Z,11.82
2023-05-17T06:41:27.723Z,11.71
2023-05-17T06:43:56.229Z,11.26
2023-05-17T06:46:26.168Z,11.33
2023-05-17T06:48:55.049Z,11.27
2023-05-17T06:51:24.569Z,11.32
2023-05-17T06:53:53.236Z,11.29
2023-05-17T06:56:21.728Z,11.20
2023-05-17T06:58:50.790Z,11.28
2023-05-17T07:01:20.591Z,11.32
2023-05-17T07:03:50.726Z,11.39
2023-05-17T07:06:19.214Z,11.40
2023-05-17T07:08:47.900Z,11.41
2023-05-17T07:11:17.833Z,11.28
2023-05-17T07:13:46.936Z,11.58
2023-05-17T07:16:15.403Z,11.76
2023-05-17T07:18:43.939Z,11.76
2023-05-17T07:21:13.956Z,11.85
2023-05-17T07:23:42.741Z,11.77
2023-05-17T07:26:11.212Z,11.74
2023-05-17T07:28:39.681Z,11.86
2023-05-17T07:31:09.666Z,11.88
2023-05-17T07:33:39.425Z,11.79
2023-05-17T07:36:08.756Z,11.64
2023-05-17T07:38:38.596Z,12.06
2023-05-17T07:41:09.790Z,12.19
2023-05-17T07:43:41.232Z,12.33
2023-05-17T07:46:09.989Z,12.25
2023-05-17T07:48:38.575Z,11.95
2023-05-17T07:51:07.099Z,12.12
2023-05-17T07:53:35.632Z,12.26
2023-05-17T07:56:06.013Z,12.46
2023-05-17T07:58:34.471Z,12.81
2023-05-17T08:01:03.011Z,13.09
2023-05-17T08:03:31.455Z,13.39
2023-05-17T08:05:59.950Z,13.50
2023-05-17T08:08:28.572Z,13.47
2023-05-17T08:10:58.481Z,12.89
2023-05-17T08:13:28.464Z,13.91
2023-05-17T08:16:05.324Z,14.57
2023-05-17T08:18:46.300Z,14.58
2023-05-17T08:21:15.114Z,14.33
2023-05-17T08:23:45.041Z,14.13
2023-05-17T08:26:14.510Z,14.10
2023-05-17T08:28:46.810Z,14.31
2023-05-17T08:31:15.270Z,14.68
2023-05-17T08:33:44.611Z,15.14
2023-05-17T08:36:13.389Z,15.41
2023-05-17T08:38:42.982Z,14.93
2023-05-17T08:41:14.427Z,14.53
2023-05-17T08:43:45.259Z,14.36
2023-05-17T08:46:15.830Z,14.53
2023-05-17T08:48:48.209Z,14.70
2023-05-17T08:51:19.128Z,14.79
2023-05-17T08:53:50.719Z,13.95
2023-05-17T08:56:23.109Z,13.89
2023-05-17T08:58:58.191Z,14.03
2023-05-17T09:01:29.871Z,13.81
2023-05-17T09:04:01.794Z,13.50
2023-05-17T09:06:34.045Z,13.25
2023-05-17T09:09:03.717Z,12.96
2023-05-17T09:11:34.123Z,13.10
2023-05-17T09:14:08.413Z,13.34
2023-05-17T09:16:39.072Z,13.11
2023-05-17T09:19:09.079Z,13.02
2023-05-17T09:21:39.544Z,13.16
2023-05-17T09:24:08.874Z,13.00
2023-05-17T09:26:42.190Z,12.96
2023-05-17T09:29:13.967Z,13.00
2023-05-17T09:31:43.974Z,13.08
2023-05-17T09:34:12.894Z,13.11
2023-05-17T09:36:44.635Z,13.02
2023-05-17T09:39:15.963Z,13.20
2023-05-17T09:41:47.078Z,13.66
2023-05-17T09:44:18.117Z,14.28
2023-05-17T09:46:48.972Z,14.40
2023-05-17T09:49:19.136Z,13.85
2023-05-17T09:51:49.980Z,13.69
2023-05-17T09:54:18.749Z,13.73
2023-05-17T09:56:54.798Z,13.51
2023-05-17T09:59:28.768Z,13.28
2023-05-17T10:01:59.343Z,13.42
2023-05-17T10:04:31.982Z,13.52
2023-05-17T10:07:02.199Z,13.69
2023-05-17T10:09:35.660Z,13.72
2023-05-17T10:12:06.071Z,13.70
2023-05-17T10:14:39.565Z,13.59
2023-05-17T10:17:09.623Z,13.60
2023-05-17T10:19:38.908Z,13.73
2023-05-17T10:22:21.747Z,13.51
2023-05-17T10:24:53.048Z,13.95
2023-05-17T10:27:22.738Z,13.42
2023-05-17T10:29:55.542Z,14.09
2023-05-17T10:32:28.395Z,14.10
2023-05-17T10:35:10.594Z,14.13
2023-05-17T10:37:42.315Z,14.23
2023-05-17T10:40:14.254Z,14.46
2023-05-17T10:42:50.877Z,14.50
2023-05-17T10:45:23.692Z,14.57
2023-05-17T10:47:53.615Z,14.96
2023-05-17T10:50:27.580Z,14.94
2023-05-17T10:53:00.540Z,15.28
2023-05-17T10:55:41.316Z,15.00
2023-05-17T10:58:21.365Z,15.09
2023-05-17T11:00:55.661Z,15.47
2023-05-17T11:03:30.169Z,15.41
2023-05-17T11:06:24.069Z,14.78
2023-05-17T11:09:09.246Z,14.64
2023-05-17T11:11:38.377Z,14.41
2023-05-17T11:14:08.655Z,14.66
2023-05-17T11:16:39.379Z,14.51
2023-05-17T11:19:13.234Z,14.25
2023-05-17T11:21:50.087Z,14.49
2023-05-17T11:24:27.999Z,14.70
2023-05-17T11:27:00.325Z,14.94
2023-05-17T11:29:31.468Z,14.68
2023-05-17T11:32:07.082Z,14.71
2023-05-17T11:34:35.981Z,14.90
2023-05-17T11:37:06.201Z,15.06
2023-05-17T11:39:35.897Z,14.94
2023-05-17T11:42:04.629Z,14.71
2023-05-17T11:44:35.072Z,14.44
2023-05-17T11:47:08.820Z,14.52
2023-05-17T11:52:09.737Z,14.61
2023-05-17T11:54:42.910Z,14.64
2023-05-17T11:57:13.022Z,14.78
2023-05-17T11:59:43.161Z,14.63
2023-05-17T12:02:29.173Z,14.64
2023-05-17T12:04:58.081Z,14.76
2023-05-17T12:07:27.799Z,14.79
2023-05-17T12:09:56.441Z,14.78
2023-05-17T12:12:24.956Z,14.94
2023-05-17T12:14:54.839Z,15.07
2023-05-17T12:17:33.853Z,15.01
2023-05-17T12:20:09.726Z,14.89
2023-05-17T12:22:54.540Z,15.03
2023-05-17T12:25:25.704Z,14.99
2023-05-17T12:27:54.614Z,14.98
2023-05-17T12:30:24.662Z,15.00
2023-05-17T12:32:54.829Z,15.20
2023-05-17T12:35:23.345Z,15.19
2023-05-17T12:37:52.418Z,15.28
2023-05-17T12:40:21.992Z,15.24
2023-05-17T12:42:51.007Z,15.27
2023-05-17T12:45:19.889Z,15.23
2023-05-17T12:47:51.215Z,15.17
2023-05-17T12:50:31.353Z,15.25
2023-05-17T12:53:00.060Z,15.33
2023-05-17T12:55:38.411Z,15.26
2023-05-17T12:58:21.860Z,15.41
2023-05-17T13:01:01.789Z,15.30
2023-05-17T13:03:31.417Z,15.45
2023-05-17T13:06:05.584Z,15.49
2023-05-17T13:08:34.940Z,15.52
2023-05-17T13:11:11.309Z,15.41
2023-05-17T13:13:40.656Z,15.52
2023-05-17T13:16:11.181Z,15.33
2023-05-17T13:18:51.417Z,15.51
2023-05-17T13:21:21.584Z,15.60
2023-05-17T13:23:52.240Z,15.49
2023-05-17T13:26:22.762Z,15.78
2023-05-17T13:28:51.421Z,15.83
2023-05-17T13:31:20.298Z,15.91
2023-05-17T13:33:50.220Z,16.06
2023-05-17T13:36:20.308Z,16.07
2023-05-17T13:38:51.123Z,16.12
2023-05-17T13:41:19.935Z,16.07
2023-05-17T13:43:48.364Z,16.49
2023-05-17T13:46:16.806Z,16.46
2023-05-17T13:48:45.352Z,16.47
2023-05-17T13:51:14.111Z,16.48
2023-05-17T13:53:44.292Z,16.68
2023-05-17T13:56:12.968Z,16.57
2023-05-17T13:58:41.517Z,16.83
2023-05-17T14:01:10.302Z,16.97
2023-05-17T14:03:38.898Z,17.02
2023-05-17T14:06:07.962Z,17.06
2023-05-17T14:08:36.485Z,17.37
2023-05-17T14:11:06.522Z,17.13
2023-05-17T14:13:35.067Z,16.71
2023-05-17T14:16:05.294Z,16.84
2023-05-17T14:18:33.917Z,17.01
2023-05-17T14:21:03.573Z,17.22
2023-05-17T14:23:32.045Z,17.19
2023-05-17T14:26:01.692Z,17.34
2023-05-17T14:28:31.510Z,17.49
2023-05-17T14:31:00.038Z,17.65
2023-05-17T14:33:28.834Z,17.80
2023-05-17T14:35:58.398Z,17.53
2023-05-17T14:38:26.853Z,17.37
2023-05-17T14:40:55.403Z,17.54
2023-05-17T14:43:24.562Z,17.54
2023-05-17T14:45:54.462Z,17.15
2023-05-17T14:48:24.596Z,17.57
2023-05-17T14:50:53.740Z,17.50
2023-05-17T14:53:23.364Z,17.48
2023-05-17T14:55:52.883Z,17.61
2023-05-17T14:58:21.986Z,17.58
2023-05-17T15:00:58.827Z,17.75
2023-05-17T15:03:36.107Z,18.03
2023-05-17T15:06:09.507Z,17.81
2023-05-17T15:08:40.738Z,18.01
2023-05-17T15:11:10.131Z,17.92
2023-05-17T15:13:38.610Z,17.87
2023-05-17T15:16:08.584Z,17.89
2023-05-17T15:18:39.294Z,17.94
2023-05-17T15:21:08.053Z,17.90
2023-05-17T15:23:37.158Z,17.86
2023-05-17T15:26:05.675Z,17.56
2023-05-17T15:28:34.118Z,17.69
2023-05-17T15:31:03.584Z,17.54
2023-05-17T15:33:32.456Z,18.08
2023-05-17T15:36:02.972Z,17.96
2023-05-17T15:38:31.519Z,17.46
2023-05-17T15:41:08.084Z,17.85
2023-05-17T15:43:36.847Z,17.90
2023-05-17T15:46:05.444Z,17.61
2023-05-17T15:48:34.487Z,17.23
2023-05-17T15:51:05.053Z,17.62
2023-05-17T15:53:35.366Z,17.29
2023-05-17T15:56:04.546Z,17.08
2023-05-17T15:58:34.583Z,17.59
2023-05-17T16:01:05.707Z,17.42
2023-05-17T16:03:35.085Z,17.43
2023-05-17T16:06:06.110Z,17.73
2023-05-17T16:08:35.191Z,17.87
2023-05-17T16:11:04.676Z,17.83
2023-05-17T16:13:33.367Z,17.18
2023-05-17T16:16:02.069Z,17.30
2023-05-17T16:18:31.188Z,17.40
2023-05-17T16:21:03.766Z,17.40
2023-05-17T16:23:33.762Z,17.64
2023-05-17T16:26:02.827Z,17.61
2023-05-17T16:28:32.388Z,17.51
2023-05-17T16:31:00.924Z,17.57
2023-05-17T16:33:29.439Z,17.68
2023-05-17T16:35:59.445Z,17.73
2023-05-17T16:38:27.948Z,17.76
2023-05-17T16:41:25.702Z,17.66
2023-05-17T16:43:54.134Z,17.75
2023-05-17T16:46:24.760Z,17.74
2023-05-17T16:48:55.469Z,18.09
2023-05-17T16:51:24.354Z,18.03
2023-05-17T16:53:52.796Z,17.49
2023-05-17T16:56:22.287Z,17.63
2023-05-17T16:58:53.342Z,17.52
2023-05-17T17:01:21.822Z,17.56
2023-05-17T17:03:50.409Z,17.19
2023-05-17T17:06:18.915Z,17.16
2023-05-17T17:08:47.664Z,16.85
2023-05-17T17:11:21.816Z,17.30
2023-05-17T17:13:54.022Z,17.39
2023-05-17T17:16:22.751Z,17.67
2023-05-17T17:18:51.486Z,16.81
2023-05-17T17:21:20.220Z,17.60
2023-05-17T17:23:48.752Z,17.67
2023-05-17T17:26:17.615Z,17.50
2023-05-17T17:28:46.111Z,17.41
2023-05-17T17:31:16.540Z,16.87
2023-05-17T17:33:45.353Z,16.90
2023-05-17T17:36:14.163Z,16.31
2023-05-17T17:38:42.647Z,16.09
2023-05-17T17:41:11.541Z,16.15
2023-05-17T17:43:41.323Z,16.42
2023-05-17T17:46:09.968Z,16.27
2023-05-17T17:48:39.829Z,16.15
2023-05-17T17:51:08.444Z,16.18
2023-05-17T17:53:36.976Z,16.45
2023-05-17T17:56:07.129Z,16.51
2023-05-17T17:58:36.659Z,16.48
2023-05-17T18:01:05.748Z,16.54
2023-05-17T18:03:35.084Z,16.74
2023-05-17T18:06:05.840Z,16.84
2023-05-17T18:08:34.336Z,16.64
2023-05-17T18:11:03.544Z,16.57
2023-05-17T18:13:32.046Z,15.73
2023-05-17T18:16:01.056Z,15.63
2023-05-17T18:18:29.567Z,15.54
2023-05-17T18:20:58.065Z,15.48
2023-05-17T18:23:27.902Z,15.15
2023-05-17T18:25:56.360Z,14.97
2023-05-17T18:28:38.198Z,14.89
2023-05-17T18:31:10.694Z,14.78
2023-05-17T18:33:39.232Z,14.62
2023-05-17T18:36:08.169Z,14.46
2023-05-17T18:38:38.045Z,14.38
2023-05-17T18:41:06.591Z,14.23
2023-05-17T18:43:35.159Z,14.11
2023-05-17T18:46:05.660Z,13.71
2023-05-17T18:48:36.145Z,13.81
2023-05-17T18:51:04.982Z,13.69
2023-05-17T18:53:33.593Z,13.57
2023-05-17T18:56:04.986Z,13.35
2023-05-17T18:58:34.669Z,13.17
2023-05-17T19:01:03.270Z,13.09
2023-05-17T19:03:32.522Z,13.25
2023-05-17T19:06:03.476Z,13.15
2023-05-17T19:08:31.928Z,13.04
2023-05-17T19:11:03.602Z,12.57
2023-05-17T19:13:33.573Z,12.63
2023-05-17T19:16:03.156Z,12.72
2023-05-17T19:18:31.853Z,12.78
2023-05-17T19:21:00.614Z,12.68
2023-05-17T19:23:29.198Z,12.64
2023-05-17T19:25:57.792Z,12.57
2023-05-17T19:28:26.385Z,12.47
2023-05-17T19:30:56.664Z,12.39
2023-05-17T19:33:25.203Z,12.40
2023-05-17T19:35:53.835Z,12.39
2023-05-17T19:38:22.235Z,12.36
2023-05-17T19:40:50.854Z,12.35
2023-05-17T19:43:19.340Z,12.21
2023-05-17T19:45:47.868Z,12.32
2023-05-17T19:48:17.670Z,12.27
2023-05-17T19:50:46.193Z,12.21
2023-05-17T19:53:14.760Z,12.13
2023-05-17T19:55:43.398Z,11.50
2023-05-17T19:58:11.972Z,12.02
2023-05-17T20:00:40.722Z,11.94
2023-05-17T20:03:10.892Z,12.01
2023-05-17T20:05:40.845Z,11.91
2023-05-17T20:08:09.977Z,11.81
2023-05-17T20:10:38.928Z,11.84
2023-05-17T20:13:07.433Z,11.80
2023-05-17T20:15:36.120Z,11.66
2023-05-17T20:18:05.255Z,11.70
2023-05-17T20:20:33.924Z,11.71
2023-05-17T20:23:08.663Z,11.68
2023-05-17T20:25:38.072Z,11.72
2023-05-17T20:28:06.717Z,11.67
2023-05-17T20:30:35.354Z,11.63
2023-05-17T20:33:03.934Z,11.59
2023-05-17T20:35:32.572Z,11.57
2023-05-17T20:38:01.249Z,11.51
2023-05-17T20:40:31.359Z,11.45
2023-05-17T20:43:00.125Z,11.37
2023-05-17T20:45:29.886Z,11.40
2023-05-17T20:47:58.457Z,11.29
2023-05-17T20:50:27.116Z,11.30
2023-05-17T20:52:55.620Z,11.07
2023-05-17T20:55:24.126Z,11.16
2023-05-17T20:57:53.990Z,11.33
2023-05-17T21:00:23.337Z,11.19
2023-05-17T21:02:52.214Z,11.06
2023-05-17T21:05:21.753Z,10.96
2023-05-17T21:07:50.501Z,11.07
2023-05-17T21:10:19.081Z,11.09
2023-05-17T21:12:47.707Z,11.08
2023-05-17T21:15:17.720Z,10.98
2023-05-17T21:17:46.270Z,11.04
2023-05-17T21:20:15.510Z,10.96
2023-05-17T21:22:45.535Z,10.80
2023-05-17T21:25:14.081Z,10.90
2023-05-17T21:27:42.708Z,10.97
2023-05-17T21:30:14.627Z,10.91
2023-05-17T21:32:45.802Z,10.95
2023-05-17T21:35:14.334Z,10.65
2023-05-17T21:37:43.016Z,10.90
2023-05-17T21:40:12.309Z,10.69
2023-05-17T21:42:40.817Z,10.75
2023-05-17T21:45:11.507Z,10.54
2023-05-17T21:47:40.056Z,10.74
2023-05-17T21:50:11.834Z,10.71
2023-05-17T21:52:40.433Z,10.60
2023-05-17T21:55:10.806Z,10.51
2023-05-17T21:57:39.371Z,10.43
2023-05-17T22:00:12.684Z,10.41
2023-05-17T22:02:42.648Z,10.18
2023-05-17T22:05:12.820Z,10.12
2023-05-17T22:07:41.489Z,10.22
2023-05-17T22:10:10.693Z,10.28
2023-05-17T22:12:39.167Z,10.26
2023-05-17T22:15:10.026Z,10.23
2023-05-17T22:17:47.832Z,10.18
2023-05-17T22:20:26.295Z,10.17
2023-05-17T22:22:55.085Z,10.06
2023-05-17T22:25:23.821Z,10.01
2023-05-17T22:27:52.402Z,9.80
2023-05-17T22:30:21.691Z,9.84
2023-05-17T22:32:54.611Z,9.88
2023-05-17T22:35:24.924Z,9.57
2023-05-17T22:37:53.828Z,9.73
2023-05-17T22:40:22.630Z,9.45
2023-05-17T22:42:51.955Z,9.54
2023-05-17T22:45:20.653Z,9.63
2023-05-17T22:47:50.686Z,9.67
2023-05-17T22:50:20.227Z,9.68
2023-05-17T22:52:53.196Z,9.64
2023-05-17T22:55:21.864Z,9.61
2023-05-17T22:57:50.433Z,9.54
2023-05-17T23:00:19.636Z,9.35
2023-05-17T23:02:48.140Z,9.49
2023-05-17T23:05:16.964Z,9.40
2023-05-17T23:07:47.482Z,9.50
2023-05-17T23:10:17.468Z,9.36
2023-05-17T23:12:45.924Z,9.44
2023-05-17T23:15:16.321Z,9.37
2023-05-17T23:17:45.964Z,9.17
2023-05-17T23:20:14.840Z,9.35
2023-05-17T23:22:44.032Z,9.30
2023-05-17T23:25:12.464Z,9.27
2023-05-17T23:27:44.438Z,9.03
2023-05-17T23:30:13.500Z,9.23
2023-05-17T23:32:42.402Z,9.17
2023-05-17T23:35:11.115Z,9.16
2023-05-17T23:37:39.895Z,8.89
2023-05-17T23:40:10.477Z,9.15
2023-05-17T23:42:39.198Z,9.09
2023-05-17T23:45:10.524Z,8.91
2023-05-17T23:47:40.859Z,9.01
2023-05-17T23:50:10.809Z,8.77
2023-05-17T23:52:39.937Z,8.86
2023-05-17T23:55:09.822Z,8.77
2023-05-17T23:57:39.320Z,8.82
